KPQI/PQI METAR and TAF weather

Enter ICAO airport designator
Station Type Date Time Source
KPQI METAR 2020/04/04 05:10 UTC NOAA

KPQI 040510Z AUTO 01006KT 10SM BKN020 OVC048 01/M02 A3015 RMK AO2


Station Type Date Time Source
KPQI Decoded METAR 2020/04/04 05:10 UTC NOAA

Presque Isle, ME, United States (KPQI) 46-41N 068-03W 146M
Apr 04, 2020 - 01:10 AM EDT / 2020.04.04 0510 UTC
Wind: from the N (010 degrees) at 7 MPH (6 KT):0
Visibility: 10 mile(s):0
Sky conditions: overcast
Temperature: 33 F (1 C)
Windchill: 26 F (-3 C):1
Dew Point: 28 F (-2 C)
Relative Humidity: 80%
Pressure (altimeter): 30.15 in. Hg (1020 hPa)
ob: KPQI 040510Z AUTO 01006KT 10SM BKN020 OVC048 01/M02 A3015 RMK AO2
cycle: 5

Station Type Date Time Source
KPQI TAF 2020/04/03 18:22 UTC NOAA

TAF KPQI 031720Z 0318/0418 05014G22KT P6SM OVC030
FM040200 04006KT P6SM BKN040

Example: see airport list